createdAt,value
2019-04-26T00:01:01.305Z,101100.79
2019-04-26T00:03:45.138Z,101100.14
2019-04-26T00:06:16.731Z,101102.98
2019-04-26T00:08:52.336Z,101113.86
2019-04-26T00:11:37.948Z,101105.66
2019-04-26T00:14:37.428Z,101115.53
2019-04-26T00:17:18.755Z,101092.19
2019-04-26T00:19:49.703Z,101109.95
2019-04-26T00:22:21.221Z,101119.31
2019-04-26T00:24:52.131Z,101109.84
2019-04-26T00:27:22.913Z,101113.84
2019-04-26T00:29:53.688Z,101109.08
2019-04-26T00:32:24.474Z,101101.56
2019-04-26T00:34:55.197Z,101101.85
2019-04-26T00:37:25.847Z,101098.98
2019-04-26T00:39:56.688Z,101103.92
2019-04-26T00:42:27.970Z,101103.86
2019-04-26T00:44:58.991Z,101104.26
2019-04-26T00:47:30.043Z,101109.02
2019-04-26T00:50:01.356Z,101107.34
2019-04-26T00:52:32.558Z,101112.55
2019-04-26T00:55:03.812Z,101110.18
2019-04-26T00:57:36.493Z,101089.09
2019-04-26T01:00:09.191Z,101106.80
2019-04-26T01:02:47.127Z,101101.75
2019-04-26T01:05:18.862Z,101102.66
2019-04-26T01:07:51.977Z,101102.63
2019-04-26T01:10:24.415Z,101101.08
2019-04-26T01:12:55.078Z,101097.49
2019-04-26T01:15:26.593Z,101096.88
2019-04-26T01:17:57.729Z,101090.13
2019-04-26T01:20:31.235Z,101084.63
2019-04-26T01:23:04.805Z,101082.55
2019-04-26T01:25:47.946Z,101084.30
2019-04-26T01:28:26.085Z,101086.62
2019-04-26T01:30:57.527Z,101087.45
2019-04-26T01:33:28.478Z,101083.53
2019-04-26T01:35:59.341Z,101078.97
2019-04-26T01:38:31.863Z,101077.17
2019-04-26T01:41:07.952Z,101070.29
2019-04-26T01:43:52.002Z,101069.19
2019-04-26T01:46:31.033Z,101066.22
2019-04-26T01:49:06.969Z,101068.05
2019-04-26T01:51:42.600Z,101062.02
2019-04-26T01:54:16.149Z,101064.47
2019-04-26T01:56:47.587Z,101064.02
2019-04-26T01:59:19.526Z,101059.25
2019-04-26T02:02:09.339Z,101058.96
2019-04-26T02:04:43.240Z,101054.81
2019-04-26T02:07:16.483Z,101047.59
2019-04-26T02:09:48.059Z,101045.59
2019-04-26T02:12:18.827Z,101048.73
2019-04-26T02:14:51.167Z,101046.49
2019-04-26T02:17:22.957Z,101042.75
2019-04-26T02:19:55.039Z,101031.62
2019-04-26T02:22:32.201Z,101031.00
2019-04-26T02:25:03.165Z,101037.15
2019-04-26T02:27:34.582Z,101037.80
2019-04-26T02:30:08.495Z,101031.06
2019-04-26T02:32:39.792Z,101035.06
2019-04-26T02:35:10.891Z,101035.78
2019-04-26T02:37:42.234Z,101032.02
2019-04-26T02:40:16.889Z,101034.22
2019-04-26T02:42:48.622Z,101034.98
2019-04-26T02:45:51.478Z,101034.22
2019-04-26T02:48:58.737Z,101032.91
2019-04-26T02:51:36.337Z,101026.63
2019-04-26T02:54:15.174Z,101029.00
2019-04-26T02:56:48.527Z,101030.02
2019-04-26T02:59:44.780Z,101030.31
2019-04-26T03:02:26.253Z,101027.50
2019-04-26T03:05:03.562Z,101030.88
2019-04-26T03:08:14.596Z,101027.59
2019-04-26T03:10:50.285Z,101029.96
2019-04-26T03:13:32.009Z,101031.35
2019-04-26T03:16:32.654Z,101033.41
2019-04-26T03:19:15.034Z,101029.00
2019-04-26T03:22:10.264Z,101028.87
2019-04-26T03:25:07.612Z,101033.34
2019-04-26T03:27:52.985Z,101034.11
2019-04-26T03:30:51.077Z,101036.41
2019-04-26T03:33:52.449Z,101039.98
2019-04-26T03:36:53.873Z,101034.40
2019-04-26T03:39:42.408Z,101036.66
2019-04-26T03:43:00.301Z,101043.10
2019-04-26T03:45:57.079Z,101042.05
2019-04-26T03:48:43.478Z,101046.48
2019-04-26T03:51:31.424Z,101045.33
2019-04-26T03:54:09.259Z,101048.31
2019-04-26T03:57:04.749Z,101047.41
2019-04-26T03:59:52.700Z,101044.62
2019-04-26T04:02:38.745Z,101051.78
2019-04-26T04:05:26.794Z,101053.11
2019-04-26T04:08:00.221Z,101056.70
2019-04-26T04:10:38.090Z,101056.66
2019-04-26T04:13:51.536Z,101057.69
2019-04-26T04:16:42.849Z,101066.80
2019-04-26T04:19:55.744Z,101065.34
2019-04-26T04:22:29.097Z,101064.52
2019-04-26T04:25:03.156Z,101061.75
2019-04-26T04:28:03.337Z,101070.27
2019-04-26T04:30:47.711Z,101067.10
2019-04-26T04:34:02.484Z,101063.94
2019-04-26T04:36:48.841Z,101069.91
2019-04-26T04:39:29.191Z,101072.16
2019-04-26T04:42:20.092Z,101070.77
2019-04-26T04:45:26.723Z,101070.67
2019-04-26T04:48:44.585Z,101074.41
2019-04-26T04:51:27.357Z,101075.34
2019-04-26T04:54:08.633Z,101083.58
2019-04-26T04:57:13.314Z,101083.09
2019-04-26T05:00:49.250Z,101085.62
2019-04-26T05:03:43.923Z,101084.21
2019-04-26T05:06:54.839Z,101086.83
2019-04-26T05:09:34.044Z,101083.16
2019-04-26T05:12:14.559Z,101083.24
2019-04-26T05:15:15.652Z,101085.41
2019-04-26T05:18:29.643Z,101087.00
2019-04-26T05:21:25.612Z,101089.41
2019-04-26T05:24:31.540Z,101096.22
2019-04-26T05:27:35.933Z,101100.56
2019-04-26T05:31:18.467Z,101103.07
2019-04-26T05:34:36.167Z,101104.13
2019-04-26T05:37:39.341Z,101109.41
2019-04-26T05:40:58.694Z,101109.49
2019-04-26T05:43:58.020Z,101109.90
2019-04-26T05:47:04.165Z,101110.47
2019-04-26T05:50:16.490Z,101108.39
2019-04-26T05:53:15.009Z,101099.66
2019-04-26T05:56:30.387Z,101100.47
2019-04-26T05:59:20.405Z,101105.75
2019-04-26T06:02:44.160Z,101106.48
2019-04-26T06:05:49.756Z,101103.69
2019-04-26T06:08:51.194Z,101110.39
2019-04-26T06:11:35.921Z,101103.35
2019-04-26T06:14:51.643Z,101105.08
2019-04-26T06:18:14.451Z,101109.84
2019-04-26T06:21:19.159Z,101108.33
2019-04-26T06:24:43.509Z,101119.75
2019-04-26T06:27:58.392Z,101122.86
2019-04-26T06:30:50.639Z,101121.45
2019-04-26T06:33:41.294Z,101120.34
2019-04-26T06:36:19.522Z,101123.61
2019-04-26T06:39:29.780Z,101126.86
2019-04-26T06:42:36.778Z,101125.67
2019-04-26T06:46:28.122Z,101119.09
2019-04-26T06:49:32.827Z,101121.16
2019-04-26T06:52:09.314Z,101119.42
2019-04-26T06:54:59.748Z,101123.75
2019-04-26T06:58:24.920Z,101119.02
2019-04-26T07:01:22.041Z,101129.47
2019-04-26T07:04:35.419Z,101129.47
2019-04-26T07:07:55.296Z,101129.74
2019-04-26T07:10:59.593Z,101117.59
2019-04-26T07:13:55.567Z,101117.77
2019-04-26T07:16:43.477Z,101125.90
2019-04-26T07:19:23.417Z,101127.09
2019-04-26T07:22:35.103Z,101123.22
2019-04-26T07:25:29.442Z,101115.35
2019-04-26T07:28:28.353Z,101114.50
2019-04-26T07:31:24.627Z,101114.05
2019-04-26T07:34:42.375Z,101105.55
2019-04-26T07:37:48.975Z,101107.73
2019-04-26T07:41:11.870Z,101113.75
2019-04-26T07:44:31.926Z,101121.87
2019-04-26T07:47:46.484Z,101115.80
2019-04-26T07:50:58.820Z,101118.86
2019-04-26T07:54:09.312Z,101120.95
2019-04-26T07:57:04.582Z,101109.84
2019-04-26T08:00:13.301Z,101114.57
2019-04-26T08:03:12.805Z,101119.03
2019-04-26T08:06:02.966Z,101120.09
2019-04-26T08:08:42.338Z,101114.36
2019-04-26T08:11:30.435Z,101117.11
2019-04-26T08:14:32.397Z,101121.66
2019-04-26T08:17:28.349Z,101119.00
2019-04-26T08:20:09.657Z,101113.77
2019-04-26T08:22:42.646Z,101118.25
2019-04-26T08:25:17.655Z,101122.06
2019-04-26T08:27:50.831Z,101114.63
2019-04-26T08:30:24.457Z,101112.48
2019-04-26T08:33:02.147Z,101117.48
2019-04-26T08:35:36.681Z,101118.33
2019-04-26T08:38:16.075Z,101115.78
2019-04-26T08:40:45.882Z,101119.38
2019-04-26T08:43:36.778Z,101122.55
2019-04-26T08:46:38.157Z,101111.95
2019-04-26T08:49:28.992Z,101118.81
2019-04-26T08:52:13.711Z,101124.37
2019-04-26T08:54:43.126Z,101119.91
2019-04-26T08:57:17.546Z,101121.14
2019-04-26T08:59:52.381Z,101121.61
2019-04-26T09:02:40.972Z,101118.02
2019-04-26T09:05:51.485Z,101115.66
2019-04-26T09:08:26.359Z,101121.23
2019-04-26T09:10:59.955Z,101133.56
2019-04-26T09:13:34.776Z,101125.23
2019-04-26T09:16:13.098Z,101119.70
2019-04-26T09:18:52.411Z,101124.42
2019-04-26T09:21:19.429Z,101129.11
2019-04-26T09:24:10.039Z,101118.45
2019-04-26T09:26:48.319Z,101116.79
2019-04-26T09:29:30.337Z,101119.16
2019-04-26T09:32:09.920Z,101116.77
2019-04-26T09:34:41.608Z,101116.99
2019-04-26T09:37:13.620Z,101110.69
2019-04-26T09:39:44.469Z,101109.86
2019-04-26T09:42:23.559Z,101108.02
2019-04-26T09:45:08.437Z,101092.72
2019-04-26T09:47:52.972Z,101093.27
2019-04-26T09:50:33.088Z,101098.34
2019-04-26T09:53:05.454Z,101097.75
2019-04-26T09:55:36.475Z,101101.48
2019-04-26T09:58:08.718Z,101096.98
2019-04-26T10:00:44.085Z,101090.28
2019-04-26T10:03:14.620Z,101092.86
2019-04-26T10:05:45.751Z,101086.91
2019-04-26T10:08:16.760Z,101088.88
2019-04-26T10:10:47.703Z,101080.30
2019-04-26T10:13:56.535Z,101082.69
2019-04-26T10:17:04.005Z,101079.50
2019-04-26T10:19:53.781Z,101083.59
2019-04-26T10:22:27.519Z,101081.24
2019-04-26T10:25:02.639Z,101085.72
2019-04-26T10:27:32.530Z,101084.52
2019-04-26T10:30:09.007Z,101088.98
2019-04-26T10:32:36.046Z,101077.02
2019-04-26T10:35:07.074Z,101078.58
2019-04-26T10:37:39.765Z,101077.37
2019-04-26T10:40:10.603Z,101077.37
2019-04-26T10:42:41.868Z,101087.28
2019-04-26T10:45:14.698Z,101087.44
2019-04-26T10:47:45.627Z,101087.63
2019-04-26T10:50:17.016Z,101079.03
2019-04-26T10:53:15.958Z,101079.73
2019-04-26T10:56:05.519Z,101080.78
2019-04-26T10:58:44.051Z,101085.19
2019-04-26T11:01:16.448Z,101079.85
2019-04-26T11:03:47.423Z,101076.78
2019-04-26T11:06:19.491Z,101077.41
2019-04-26T11:08:51.131Z,101075.05
2019-04-26T11:11:22.443Z,101084.21
2019-04-26T11:13:54.304Z,101089.67
2019-04-26T11:16:25.654Z,101084.53
2019-04-26T11:18:57.264Z,101082.05
2019-04-26T11:21:30.153Z,101081.03
2019-04-26T11:24:01.231Z,101081.54
2019-04-26T11:26:34.820Z,101082.00
2019-04-26T11:29:04.274Z,101083.09
2019-04-26T11:31:37.318Z,101082.90
2019-04-26T11:34:08.684Z,101080.73
2019-04-26T11:36:41.839Z,101077.95
2019-04-26T11:39:17.032Z,101080.97
2019-04-26T11:41:49.022Z,101073.86
2019-04-26T11:44:23.372Z,101067.23
2019-04-26T11:46:54.726Z,101065.70
2019-04-26T11:49:26.926Z,101062.05
2019-04-26T11:52:02.503Z,101053.48
2019-04-26T11:54:31.809Z,101060.77
2019-04-26T11:57:03.663Z,101054.48
2019-04-26T11:59:35.825Z,101052.23
2019-04-26T12:02:08.228Z,101060.70
2019-04-26T12:05:06.958Z,101047.47
2019-04-26T12:07:43.128Z,101045.26
2019-04-26T12:10:14.509Z,101040.39
2019-04-26T12:12:47.062Z,101045.47
2019-04-26T12:15:29.747Z,101043.72
2019-04-26T12:17:58.383Z,101034.95
2019-04-26T12:20:26.942Z,101033.64
2019-04-26T12:22:58.273Z,101028.84
2019-04-26T12:25:31.074Z,101022.97
2019-04-26T12:28:06.055Z,101022.19
2019-04-26T12:30:35.414Z,101020.91
2019-04-26T12:33:06.453Z,101018.09
2019-04-26T12:35:38.649Z,101014.45
2019-04-26T12:38:10.418Z,101010.93
2019-04-26T12:40:46.120Z,101012.86
2019-04-26T12:43:15.907Z,101015.48
2019-04-26T12:46:05.055Z,101014.22
2019-04-26T12:48:36.382Z,101012.22
2019-04-26T12:51:08.251Z,101000.65
2019-04-26T12:53:41.042Z,101008.23
2019-04-26T12:56:11.993Z,101006.57
2019-04-26T12:58:45.626Z,100995.90
2019-04-26T13:01:17.137Z,100998.06
2019-04-26T13:04:04.653Z,100997.14
2019-04-26T13:06:40.494Z,100985.42
2019-04-26T13:09:22.016Z,100984.02
2019-04-26T13:12:06.878Z,100978.07
2019-04-26T13:14:53.626Z,100980.16
2019-04-26T13:17:31.320Z,100978.46
2019-04-26T13:20:03.498Z,100978.89
2019-04-26T13:22:45.296Z,100974.02
2019-04-26T13:25:15.533Z,100960.68
2019-04-26T13:27:41.590Z,100964.01
2019-04-26T13:30:12.408Z,100963.54
2019-04-26T13:32:44.426Z,100961.53
2019-04-26T13:35:16.229Z,100961.77
2019-04-26T13:37:46.906Z,100959.09
2019-04-26T13:40:17.867Z,100962.81
2019-04-26T13:42:51.467Z,100957.23
2019-04-26T13:45:36.581Z,100957.38
2019-04-26T13:48:35.278Z,100956.50
2019-04-26T13:51:08.437Z,100956.00
2019-04-26T13:53:41.232Z,100949.73
2019-04-26T13:56:12.270Z,100945.94
2019-04-26T13:58:44.552Z,100950.46
2019-04-26T14:01:18.708Z,100946.72
2019-04-26T14:03:48.128Z,100945.55
2019-04-26T14:06:18.825Z,100944.85
2019-04-26T14:08:49.531Z,100953.67
2019-04-26T14:11:27.959Z,100945.91
2019-04-26T14:13:55.478Z,100937.90
2019-04-26T14:16:27.500Z,100939.09
2019-04-26T14:18:58.405Z,100937.67
2019-04-26T14:21:33.105Z,100938.48
2019-04-26T14:24:23.857Z,100939.39
2019-04-26T14:26:57.021Z,100949.94
2019-04-26T14:29:32.415Z,100944.20
2019-04-26T14:32:07.848Z,100931.09
2019-04-26T14:34:45.223Z,100931.94
2019-04-26T14:37:25.813Z,100932.00
2019-04-26T14:40:16.799Z,100930.39
2019-04-26T14:42:45.835Z,100932.29
2019-04-26T14:45:23.944Z,100934.24
2019-04-26T14:48:00.190Z,100945.69
2019-04-26T14:50:32.126Z,100929.14
2019-04-26T14:53:04.731Z,100933.16
2019-04-26T14:55:42.689Z,100921.23
2019-04-26T14:58:30.279Z,100929.24
2019-04-26T15:01:06.009Z,100929.35
2019-04-26T15:03:45.693Z,100924.95
2019-04-26T15:06:23.797Z,100912.86
2019-04-26T15:08:56.765Z,100916.56
2019-04-26T15:11:32.194Z,100914.41
2019-04-26T15:14:04.727Z,100913.44
2019-04-26T15:16:41.487Z,100920.34
2019-04-26T15:19:14.053Z,100919.94
2019-04-26T15:21:45.002Z,100920.75
2019-04-26T15:24:15.797Z,100923.76
2019-04-26T15:26:46.678Z,100923.36
2019-04-26T15:29:21.328Z,100929.42
2019-04-26T15:31:53.626Z,100928.42
2019-04-26T15:34:26.416Z,100918.61
2019-04-26T15:37:34.595Z,100917.33
2019-04-26T15:40:34.888Z,100916.45
2019-04-26T15:43:28.620Z,100913.89
2019-04-26T15:46:13.505Z,100907.16
2019-04-26T15:49:22.494Z,100904.11
2019-04-26T15:51:56.388Z,100901.17
2019-04-26T15:54:26.536Z,100889.97
2019-04-26T15:56:57.581Z,100898.69
2019-04-26T15:59:28.325Z,100897.66
2019-04-26T16:01:59.727Z,100891.39
2019-04-26T16:04:32.432Z,100892.35
2019-04-26T16:07:03.388Z,100890.98
2019-04-26T16:09:34.104Z,100891.78
2019-04-26T16:12:05.264Z,100890.52
2019-04-26T16:14:36.996Z,100897.42
2019-04-26T16:17:08.167Z,100888.64
2019-04-26T16:19:39.469Z,100885.21
2019-04-26T16:22:11.656Z,100881.39
2019-04-26T16:24:44.060Z,100876.92
2019-04-26T16:27:15.808Z,100880.75
2019-04-26T16:30:10.720Z,100877.12
2019-04-26T16:32:54.085Z,100881.16
2019-04-26T16:35:28.072Z,100875.39
2019-04-26T16:37:59.837Z,100877.84
2019-04-26T16:40:28.029Z,100877.09
2019-04-26T16:42:59.702Z,100877.87
2019-04-26T16:45:32.689Z,100875.92
2019-04-26T16:48:03.901Z,100869.34
2019-04-26T16:50:44.013Z,100867.71
2019-04-26T16:53:23.207Z,100872.34
2019-04-26T16:55:49.148Z,100872.27
2019-04-26T16:58:12.637Z,100880.73
2019-04-26T17:00:51.637Z,100882.98
2019-04-26T17:03:16.856Z,100883.58
2019-04-26T17:05:48.614Z,100891.73
2019-04-26T17:08:20.435Z,100885.67
2019-04-26T17:10:56.320Z,100886.27
2019-04-26T17:13:29.835Z,100878.44
2019-04-26T17:15:59.905Z,100880.59
2019-04-26T17:18:32.329Z,100888.16
2019-04-26T17:21:04.647Z,100888.17
2019-04-26T17:24:00.835Z,100888.22
2019-04-26T17:26:38.410Z,100880.56
2019-04-26T17:29:09.473Z,100886.62
2019-04-26T17:31:40.246Z,100892.70
2019-04-26T17:34:17.170Z,100894.87
2019-04-26T17:36:52.290Z,100889.74
2019-04-26T17:39:23.689Z,100893.67
2019-04-26T17:41:55.304Z,100895.53
2019-04-26T17:44:28.475Z,100897.59
2019-04-26T17:47:05.056Z,100897.23
2019-04-26T17:49:39.074Z,100903.23
2019-04-26T17:52:09.567Z,100906.49
2019-04-26T17:54:48.889Z,100908.16
2019-04-26T17:57:15.953Z,100906.14
2019-04-26T17:59:49.042Z,100909.21
2019-04-26T18:02:38.744Z,100905.84
2019-04-26T18:05:00.818Z,100908.55
2019-04-26T18:07:43.000Z,100904.56
2019-04-26T18:10:04.705Z,100910.52
2019-04-26T18:12:39.382Z,100906.98
2019-04-26T18:15:10.362Z,100914.92
2019-04-26T18:18:04.115Z,100912.41
2019-04-26T18:20:51.262Z,100916.25
2019-04-26T18:23:23.369Z,100920.63
2019-04-26T18:25:54.529Z,100921.37
2019-04-26T18:28:25.927Z,100924.54
2019-04-26T18:30:57.203Z,100920.26
2019-04-26T18:33:29.182Z,100918.29
2019-04-26T18:36:00.382Z,100913.72
2019-04-26T18:38:31.224Z,100918.20
2019-04-26T18:41:03.615Z,100920.91
2019-04-26T18:43:34.959Z,100921.17
2019-04-26T18:46:12.817Z,100916.53
2019-04-26T18:48:44.078Z,100920.62
2019-04-26T18:51:14.989Z,100920.91
2019-04-26T18:54:17.727Z,100922.88
2019-04-26T18:56:51.098Z,100925.48
2019-04-26T18:59:23.344Z,100918.09
2019-04-26T19:01:55.035Z,100913.80
2019-04-26T19:04:26.919Z,100914.17
2019-04-26T19:06:58.178Z,100920.61
2019-04-26T19:09:29.085Z,100910.24
2019-04-26T19:12:01.748Z,100908.13
2019-04-26T19:15:02.469Z,100908.22
2019-04-26T19:17:45.359Z,100900.19
2019-04-26T19:20:26.185Z,100905.06
2019-04-26T19:23:03.026Z,100901.73
2019-04-26T19:25:40.549Z,100901.34
2019-04-26T19:28:08.250Z,100899.78
2019-04-26T19:30:43.617Z,100903.20
2019-04-26T19:33:16.918Z,100901.09
2019-04-26T19:35:47.418Z,100899.94
2019-04-26T19:38:17.593Z,100900.42
2019-04-26T19:40:48.986Z,100897.56
2019-04-26T19:43:30.182Z,100899.84
2019-04-26T19:46:12.848Z,100898.81
2019-04-26T19:49:03.546Z,100901.91
2019-04-26T19:51:56.704Z,100904.70
2019-04-26T20:17:04.411Z,100903.19
2019-04-26T20:19:37.525Z,100895.35
2019-04-26T20:22:08.086Z,100892.73
2019-04-26T20:24:39.297Z,100891.34
2019-04-26T20:27:15.646Z,100890.13
2019-04-26T20:29:47.440Z,100890.33
2019-04-26T20:32:33.693Z,100887.72
2019-04-26T20:35:19.695Z,100885.47
2019-04-26T20:37:52.138Z,100881.36
2019-04-26T20:40:25.516Z,100876.13
2019-04-26T20:43:01.628Z,100876.53
2019-04-26T20:45:38.660Z,100872.61
2019-04-26T20:48:02.320Z,100874.92
2019-04-26T20:50:36.761Z,100879.30
2019-04-26T20:53:07.381Z,100870.73
2019-04-26T20:55:38.499Z,100875.47
2019-04-26T20:58:09.485Z,100875.30
2019-04-26T21:00:53.531Z,100875.95
2019-04-26T21:03:23.066Z,100873.88
2019-04-26T21:05:46.832Z,100875.19
2019-04-26T21:08:25.752Z,100873.03
2019-04-26T21:10:56.148Z,100876.96
2019-04-26T21:13:30.744Z,100880.97
2019-04-26T21:16:02.661Z,100876.84
2019-04-26T21:18:33.754Z,100875.94
2019-04-26T21:21:05.823Z,100878.25
2019-04-26T21:23:40.055Z,100881.50
2019-04-26T21:26:32.196Z,100879.83
2019-04-26T21:29:34.190Z,100879.73
2019-04-26T21:32:30.782Z,100876.27
2019-04-26T21:35:04.773Z,100874.06
2019-04-26T21:37:43.208Z,100871.45
2019-04-26T21:40:23.217Z,100868.25
2019-04-26T21:42:59.269Z,100856.41
2019-04-26T21:45:31.017Z,100850.70
2019-04-26T21:48:02.629Z,100847.73
2019-04-26T21:50:38.594Z,100852.02
2019-04-26T21:53:07.040Z,100846.24
2019-04-26T21:55:38.734Z,100846.64
2019-04-26T21:58:09.486Z,100850.25
2019-04-26T22:00:58.887Z,100849.25
2019-04-26T22:03:29.897Z,100847.84
2019-04-26T22:06:00.709Z,100839.80
2019-04-26T22:08:34.773Z,100843.63
2019-04-26T22:11:05.591Z,100845.69
2019-04-26T22:13:55.920Z,100844.39
2019-04-26T22:16:41.095Z,100849.52
2019-04-26T22:19:32.462Z,100844.95
2019-04-26T22:22:19.732Z,100843.46
2019-04-26T22:24:51.147Z,100846.53
2019-04-26T22:27:25.234Z,100840.28
2019-04-26T22:29:55.097Z,100838.98
2019-04-26T22:32:26.142Z,100839.38
2019-04-26T22:34:56.907Z,100837.67
2019-04-26T22:37:30.072Z,100832.45
2019-04-26T22:40:03.543Z,100828.34
2019-04-26T22:42:39.905Z,100819.78
2019-04-26T22:45:15.704Z,100820.14
2019-04-26T22:48:11.571Z,100813.31
2019-04-26T22:50:43.654Z,100807.18
2019-04-26T22:53:14.672Z,100808.58
2019-04-26T22:55:45.259Z,100801.56
2019-04-26T22:58:20.623Z,100801.39
2019-04-26T23:00:49.941Z,100799.33
2019-04-26T23:03:20.840Z,100795.41
2019-04-26T23:05:53.331Z,100794.19
2019-04-26T23:08:24.439Z,100782.26
2019-04-26T23:10:57.267Z,100781.70
2019-04-26T23:13:50.004Z,100774.87
2019-04-26T23:17:01.689Z,100776.09
2019-04-26T23:19:39.338Z,100772.81
2019-04-26T23:22:12.786Z,100776.62
2019-04-26T23:24:44.873Z,100770.83
2019-04-26T23:27:20.497Z,100765.61
2019-04-26T23:29:49.935Z,100766.83
2019-04-26T23:32:20.839Z,100766.25
2019-04-26T23:34:53.132Z,100762.73
2019-04-26T23:37:27.620Z,100755.54
2019-04-26T23:39:57.862Z,100750.88
2019-04-26T23:42:29.272Z,100753.50
2019-04-26T23:45:00.034Z,100746.42
2019-04-26T23:47:32.081Z,100741.28
2019-04-26T23:50:03.668Z,100737.27
2019-04-26T23:52:34.362Z,100735.76
2019-04-26T23:55:08.759Z,100732.79
2019-04-26T23:57:38.083Z,100729.72
